sensor_id;sensor_type;location;lat;lon;timestamp;pressure;altitude;pressure_sealevel;temperature;humidity
62942;BME280;49042;47.318;19.874;2023-02-13T00:01:20;102593.28;;;-1.74;91.25
62942;BME280;49042;47.318;19.874;2023-02-13T00:04:22;102603.41;;;-2.20;91.65
62942;BME280;49042;47.318;19.874;2023-02-13T00:07:24;102613.44;;;-3.30;97.54
62942;BME280;49042;47.318;19.874;2023-02-13T00:10:25;102610.63;;;-3.53;99.77
62942;BME280;49042;47.318;19.874;2023-02-13T00:13:27;102620.28;;;-3.51;99.88
62942;BME280;49042;47.318;19.874;2023-02-13T00:16:29;102619.25;;;-4.01;100.00
62942;BME280;49042;47.318;19.874;2023-02-13T00:19:31;102614.78;;;-4.17;100.00
62942;BME280;49042;47.318;19.874;2023-02-13T00:22:37;102619.09;;;-4.23;100.00
62942;BME280;49042;47.318;19.874;2023-02-13T00:25:38;102617.34;;;-4.37;100.00
62942;BME280;49042;47.318;19.874;2023-02-13T00:28:40;102620.03;;;-4.43;100.00
62942;BME280;49042;47.318;19.874;2023-02-13T00:31:42;102625.59;;;-4.53;100.00
62942;BME280;49042;47.318;19.874;2023-02-13T00:34:44;102622.75;;;-4.62;100.00
62942;BME280;49042;47.318;19.874;2023-02-13T00:37:46;102631.31;;;-4.62;100.00
62942;BME280;49042;47.318;19.874;2023-02-13T00:40:47;102622.56;;;-4.64;100.00
62942;BME280;49042;47.318;19.874;2023-02-13T00:43:49;102621.78;;;-4.70;100.00
62942;BME280;49042;47.318;19.874;2023-02-13T00:46:51;102620.97;;;-4.76;100.00
62942;BME280;49042;47.318;19.874;2023-02-13T00:49:52;102617.97;;;-4.87;100.00
62942;BME280;49042;47.318;19.874;2023-02-13T00:52:54;102614.09;;;-4.90;100.00
62942;BME280;49042;47.318;19.874;2023-02-13T00:55:56;102607.53;;;-4.96;100.00
62942;BME280;49042;47.318;19.874;2023-02-13T00:58:58;102604.69;;;-5.05;100.00
62942;BME280;49042;47.318;19.874;2023-02-13T01:01:59;102605.28;;;-5.00;100.00
62942;BME280;49042;47.318;19.874;2023-02-13T01:05:02;102604.91;;;-5.03;100.00
62942;BME280;49042;47.318;19.874;2023-02-13T01:08:04;102598.50;;;-5.07;100.00
62942;BME280;49042;47.318;19.874;2023-02-13T01:11:06;102600.13;;;-5.07;100.00
62942;BME280;49042;47.318;19.874;2023-02-13T01:14:08;102588.78;;;-4.96;100.00
62942;BME280;49042;47.318;19.874;2023-02-13T01:17:10;102589.84;;;-4.40;100.00
62942;BME280;49042;47.318;19.874;2023-02-13T01:20:12;102582.31;;;-4.87;100.00
62942;BME280;49042;47.318;19.874;2023-02-13T01:23:14;102596.28;;;-4.90;100.00
62942;BME280;49042;47.318;19.874;2023-02-13T01:26:19;102595.06;;;-4.66;100.00
62942;BME280;49042;47.318;19.874;2023-02-13T01:29:21;102595.28;;;-4.65;100.00
62942;BME280;49042;47.318;19.874;2023-02-13T01:32:23;102602.28;;;-4.90;100.00
62942;BME280;49042;47.318;19.874;2023-02-13T01:35:25;102597.59;;;-4.87;100.00
62942;BME280;49042;47.318;19.874;2023-02-13T01:38:26;102607.16;;;-4.58;100.00
62942;BME280;49042;47.318;19.874;2023-02-13T01:41:28;102618.41;;;-4.63;100.00
62942;BME280;49042;47.318;19.874;2023-02-13T01:44:47;102613.63;;;-4.67;100.00
62942;BME280;49042;47.318;19.874;2023-02-13T01:47:53;102612.87;;;-4.87;100.00
62942;BME280;49042;47.318;19.874;2023-02-13T01:51:09;102621.41;;;-5.07;100.00
62942;BME280;49042;47.318;19.874;2023-02-13T01:54:18;102614.16;;;-5.03;100.00
62942;BME280;49042;47.318;19.874;2023-02-13T01:57:24;102614.31;;;-4.27;100.00
62942;BME280;49042;47.318;19.874;2023-02-13T02:00:27;102617.94;;;-4.33;100.00
62942;BME280;49042;47.318;19.874;2023-02-13T02:03:34;102604.00;;;-3.94;100.00
62942;BME280;49042;47.318;19.874;2023-02-13T02:06:41;102603.56;;;-3.77;100.00
62942;BME280;49042;47.318;19.874;2023-02-13T02:09:43;102604.19;;;-3.64;100.00
62942;BME280;49042;47.318;19.874;2023-02-13T02:13:02;102600.63;;;-3.45;100.00
62942;BME280;49042;47.318;19.874;2023-02-13T02:16:05;102602.06;;;-3.54;100.00
62942;BME280;49042;47.318;19.874;2023-02-13T02:19:18;102600.88;;;-3.63;100.00
62942;BME280;49042;47.318;19.874;2023-02-13T02:22:41;102604.16;;;-3.72;100.00
62942;BME280;49042;47.318;19.874;2023-02-13T02:42:09;102608.38;;;-4.41;100.00
62942;BME280;49042;47.318;19.874;2023-02-13T02:46:00;102600.03;;;-4.81;100.00
62942;BME280;49042;47.318;19.874;2023-02-13T02:52:18;102614.81;;;-5.25;100.00
62942;BME280;49042;47.318;19.874;2023-02-13T02:56:04;102615.34;;;-5.28;100.00
62942;BME280;49042;47.318;19.874;2023-02-13T02:58:46;102613.22;;;-5.51;100.00
62942;BME280;49042;47.318;19.874;2023-02-13T03:02:11;102612.59;;;-5.29;100.00
62942;BME280;49042;47.318;19.874;2023-02-13T03:05:43;102609.75;;;-5.38;100.00
62942;BME280;49042;47.318;19.874;2023-02-13T03:09:09;102610.03;;;-5.29;100.00
62942;BME280;49042;47.318;19.874;2023-02-13T03:16:23;102612.87;;;-4.66;100.00
62942;BME280;49042;47.318;19.874;2023-02-13T03:23:42;102617.00;;;-4.33;100.00
62942;BME280;49042;47.318;19.874;2023-02-13T03:36:58;102605.31;;;-4.18;100.00
62942;BME280;49042;47.318;19.874;2023-02-13T03:40:47;102604.97;;;-4.14;100.00
62942;BME280;49042;47.318;19.874;2023-02-13T03:44:29;102605.91;;;-4.75;100.00
62942;BME280;49042;47.318;19.874;2023-02-13T03:47:31;102609.53;;;-4.59;100.00
62942;BME280;49042;47.318;19.874;2023-02-13T03:50:39;102605.06;;;-5.35;100.00
62942;BME280;49042;47.318;19.874;2023-02-13T03:53:45;102600.88;;;-5.21;100.00
62942;BME280;49042;47.318;19.874;2023-02-13T03:56:50;102599.81;;;-4.82;100.00
62942;BME280;49042;47.318;19.874;2023-02-13T04:00:13;102599.50;;;-4.78;100.00
62942;BME280;49042;47.318;19.874;2023-02-13T04:06:54;102586.19;;;-4.83;100.00
62942;BME280;49042;47.318;19.874;2023-02-13T04:10:00;102593.19;;;-4.75;100.00
62942;BME280;49042;47.318;19.874;2023-02-13T04:13:13;102586.50;;;-4.87;100.00
62942;BME280;49042;47.318;19.874;2023-02-13T04:16:28;102587.72;;;-4.91;100.00
62942;BME280;49042;47.318;19.874;2023-02-13T04:19:32;102576.84;;;-4.69;99.71
62942;BME280;49042;47.318;19.874;2023-02-13T04:22:41;102574.03;;;-4.78;100.00
62942;BME280;49042;47.318;19.874;2023-02-13T04:25:48;102586.69;;;-5.19;100.00
62942;BME280;49042;47.318;19.874;2023-02-13T04:28:50;102581.03;;;-5.84;100.00
62942;BME280;49042;47.318;19.874;2023-02-13T04:31:52;102580.94;;;-5.31;100.00
62942;BME280;49042;47.318;19.874;2023-02-13T04:34:54;102579.47;;;-6.02;100.00
62942;BME280;49042;47.318;19.874;2023-02-13T04:37:56;102579.59;;;-6.08;100.00
62942;BME280;49042;47.318;19.874;2023-02-13T04:40:57;102588.12;;;-6.20;100.00
62942;BME280;49042;47.318;19.874;2023-02-13T04:43:59;102582.75;;;-6.29;100.00
62942;BME280;49042;47.318;19.874;2023-02-13T04:47:01;102574.50;;;-6.34;100.00
62942;BME280;49042;47.318;19.874;2023-02-13T04:50:03;102576.41;;;-6.39;100.00
62942;BME280;49042;47.318;19.874;2023-02-13T04:53:04;102573.56;;;-6.48;100.00
62942;BME280;49042;47.318;19.874;2023-02-13T04:56:06;102567.78;;;-6.47;100.00
62942;BME280;49042;47.318;19.874;2023-02-13T04:59:08;102574.47;;;-6.47;100.00
62942;BME280;49042;47.318;19.874;2023-02-13T05:02:09;102580.47;;;-6.47;100.00
62942;BME280;49042;47.318;19.874;2023-02-13T05:05:11;102579.63;;;-6.53;100.00
62942;BME280;49042;47.318;19.874;2023-02-13T05:08:13;102577.38;;;-6.57;100.00
62942;BME280;49042;47.318;19.874;2023-02-13T05:11:14;102573.75;;;-6.46;100.00
62942;BME280;49042;47.318;19.874;2023-02-13T05:14:16;102573.56;;;-6.35;100.00
62942;BME280;49042;47.318;19.874;2023-02-13T05:17:18;102570.50;;;-6.45;100.00
62942;BME280;49042;47.318;19.874;2023-02-13T05:20:20;102571.31;;;-6.52;100.00
62942;BME280;49042;47.318;19.874;2023-02-13T05:23:21;102577.03;;;-6.47;100.00
62942;BME280;49042;47.318;19.874;2023-02-13T05:26:23;102564.00;;;-6.04;100.00
62942;BME280;49042;47.318;19.874;2023-02-13T05:29:25;102557.19;;;-5.58;100.00
62942;BME280;49042;47.318;19.874;2023-02-13T05:32:26;102564.06;;;-5.44;100.00
62942;BME280;49042;47.318;19.874;2023-02-13T05:35:28;102557.22;;;-5.24;100.00
62942;BME280;49042;47.318;19.874;2023-02-13T05:41:50;102554.22;;;-5.14;100.00
62942;BME280;49042;47.318;19.874;2023-02-13T05:44:52;102542.91;;;-5.37;100.00
62942;BME280;49042;47.318;19.874;2023-02-13T05:47:53;102540.19;;;-5.52;100.00
62942;BME280;49042;47.318;19.874;2023-02-13T05:50:55;102557.97;;;-5.39;100.00
62942;BME280;49042;47.318;19.874;2023-02-13T05:53:57;102558.87;;;-5.38;100.00
62942;BME280;49042;47.318;19.874;2023-02-13T05:56:59;102559.53;;;-5.13;100.00
62942;BME280;49042;47.318;19.874;2023-02-13T06:00:02;102574.22;;;-4.97;100.00
62942;BME280;49042;47.318;19.874;2023-02-13T06:03:04;102578.38;;;-4.98;100.00
62942;BME280;49042;47.318;19.874;2023-02-13T06:06:06;102573.13;;;-4.79;100.00
62942;BME280;49042;47.318;19.874;2023-02-13T06:09:07;102577.12;;;-4.81;98.84
62942;BME280;49042;47.318;19.874;2023-02-13T06:12:09;102581.03;;;-4.49;97.26
62942;BME280;49042;47.318;19.874;2023-02-13T06:15:11;102573.38;;;-4.29;97.53
62942;BME280;49042;47.318;19.874;2023-02-13T06:18:12;102584.03;;;-4.39;94.68
62942;BME280;49042;47.318;19.874;2023-02-13T06:21:14;102579.00;;;-4.04;93.21
62942;BME280;49042;47.318;19.874;2023-02-13T06:24:16;102583.56;;;-3.24;91.59
62942;BME280;49042;47.318;19.874;2023-02-13T06:27:18;102581.94;;;-1.76;84.68
62942;BME280;49042;47.318;19.874;2023-02-13T06:30:20;102593.38;;;-0.50;77.61
62942;BME280;49042;47.318;19.874;2023-02-13T06:33:22;102584.72;;;0.29;68.82
62942;BME280;49042;47.318;19.874;2023-02-13T06:36:23;102579.59;;;1.37;63.42
62942;BME280;49042;47.318;19.874;2023-02-13T06:39:25;102584.09;;;2.17;59.43
62942;BME280;49042;47.318;19.874;2023-02-13T06:42:27;102582.25;;;2.16;59.18
62942;BME280;49042;47.318;19.874;2023-02-13T06:45:28;102588.75;;;1.51;59.54
62942;BME280;49042;47.318;19.874;2023-02-13T06:48:30;102590.38;;;-0.93;70.73
62942;BME280;49042;47.318;19.874;2023-02-13T06:51:32;102597.94;;;-2.23;82.54
62942;BME280;49042;47.318;19.874;2023-02-13T06:54:33;102605.41;;;-2.32;84.31
62942;BME280;49042;47.318;19.874;2023-02-13T06:57:48;102601.56;;;-2.43;86.29
62942;BME280;49042;47.318;19.874;2023-02-13T07:00:51;102611.91;;;-3.50;94.36
62942;BME280;49042;47.318;19.874;2023-02-13T07:03:53;102608.50;;;-3.71;98.88
62942;BME280;49042;47.318;19.874;2023-02-13T07:06:55;102610.03;;;-3.58;99.33
62942;BME280;49042;47.318;19.874;2023-02-13T07:09:57;102612.00;;;-3.63;100.00
62942;BME280;49042;47.318;19.874;2023-02-13T07:12:59;102619.00;;;-3.55;100.00
62942;BME280;49042;47.318;19.874;2023-02-13T07:16:06;102624.31;;;-3.46;100.00
62942;BME280;49042;47.318;19.874;2023-02-13T07:19:08;102635.31;;;-3.39;100.00
62942;BME280;49042;47.318;19.874;2023-02-13T07:22:10;102644.19;;;-3.01;100.00
62942;BME280;49042;47.318;19.874;2023-02-13T07:25:11;102647.75;;;-2.56;98.36
62942;BME280;49042;47.318;19.874;2023-02-13T07:28:13;102643.94;;;-2.01;96.32
62942;BME280;49042;47.318;19.874;2023-02-13T07:31:15;102652.97;;;-1.52;94.52
62942;BME280;49042;47.318;19.874;2023-02-13T07:34:17;102644.28;;;-0.84;91.66
62942;BME280;49042;47.318;19.874;2023-02-13T07:37:18;102649.41;;;-0.06;88.65
62942;BME280;49042;47.318;19.874;2023-02-13T07:40:20;102643.66;;;0.85;84.02
62942;BME280;49042;47.318;19.874;2023-02-13T07:43:22;102646.94;;;4.66;66.99
62942;BME280;49042;47.318;19.874;2023-02-13T07:46:23;102642.00;;;8.05;49.83
62942;BME280;49042;47.318;19.874;2023-02-13T07:49:25;102634.19;;;9.85;43.84
62942;BME280;49042;47.318;19.874;2023-02-13T07:52:27;102643.00;;;11.77;38.42
62942;BME280;49042;47.318;19.874;2023-02-13T07:55:29;102633.53;;;13.48;34.53
62942;BME280;49042;47.318;19.874;2023-02-13T07:58:31;102638.44;;;13.42;33.27
62942;BME280;49042;47.318;19.874;2023-02-13T08:01:33;102633.87;;;13.54;33.27
62942;BME280;49042;47.318;19.874;2023-02-13T08:04:34;102634.91;;;15.73;29.34
62942;BME280;49042;47.318;19.874;2023-02-13T08:07:36;102634.22;;;14.64;30.19
62942;BME280;49042;47.318;19.874;2023-02-13T08:10:39;102624.31;;;15.92;29.53
62942;BME280;49042;47.318;19.874;2023-02-13T08:13:59;102629.13;;;17.56;26.58
62942;BME280;49042;47.318;19.874;2023-02-13T08:17:01;102632.12;;;13.21;32.17
62942;BME280;49042;47.318;19.874;2023-02-13T08:20:03;102633.75;;;11.82;35.46
62942;BME280;49042;47.318;19.874;2023-02-13T08:23:09;102637.00;;;8.30;42.46
62942;BME280;49042;47.318;19.874;2023-02-13T08:26:11;102631.47;;;7.13;45.06
62942;BME280;49042;47.318;19.874;2023-02-13T08:29:13;102639.25;;;4.37;56.27
62942;BME280;49042;47.318;19.874;2023-02-13T08:32:15;102629.47;;;3.50;62.60
62942;BME280;49042;47.318;19.874;2023-02-13T08:35:17;102632.75;;;3.20;65.54
62942;BME280;49042;47.318;19.874;2023-02-13T08:38:18;102628.53;;;2.50;68.65
62942;BME280;49042;47.318;19.874;2023-02-13T08:41:21;102625.78;;;1.44;77.11
62942;BME280;49042;47.318;19.874;2023-02-13T08:44:23;102617.78;;;1.50;79.00
62942;BME280;49042;47.318;19.874;2023-02-13T08:47:25;102619.00;;;1.54;78.48
62942;BME280;49042;47.318;19.874;2023-02-13T08:50:27;102619.59;;;2.64;73.66
62942;BME280;49042;47.318;19.874;2023-02-13T08:53:28;102606.06;;;5.51;61.29
62942;BME280;49042;47.318;19.874;2023-02-13T08:56:30;102605.72;;;10.81;42.31
62942;BME280;49042;47.318;19.874;2023-02-13T08:59:32;102597.22;;;14.23;33.53
62942;BME280;49042;47.318;19.874;2023-02-13T09:02:33;102596.84;;;15.85;30.12
62942;BME280;49042;47.318;19.874;2023-02-13T09:05:35;102594.78;;;16.62;28.73
62942;BME280;49042;47.318;19.874;2023-02-13T09:08:37;102608.31;;;16.72;27.67
62942;BME280;49042;47.318;19.874;2023-02-13T09:11:38;102606.34;;;18.61;25.36
62942;BME280;49042;47.318;19.874;2023-02-13T09:14:40;102606.69;;;18.72;25.37
62942;BME280;49042;47.318;19.874;2023-02-13T09:17:42;102602.53;;;18.53;25.44
62942;BME280;49042;47.318;19.874;2023-02-13T09:20:43;102600.72;;;18.52;24.83
62942;BME280;49042;47.318;19.874;2023-02-13T09:23:45;102598.31;;;19.46;24.53
62942;BME280;49042;47.318;19.874;2023-02-13T09:26:47;102599.44;;;19.89;23.18
62942;BME280;49042;47.318;19.874;2023-02-13T09:29:48;102592.31;;;18.64;24.17
62942;BME280;49042;47.318;19.874;2023-02-13T09:32:51;102593.91;;;20.14;23.86
62942;BME280;49042;47.318;19.874;2023-02-13T09:35:53;102594.06;;;21.36;21.34
62942;BME280;49042;47.318;19.874;2023-02-13T09:38:56;102595.28;;;20.70;22.38
62942;BME280;49042;47.318;19.874;2023-02-13T09:41:59;102592.09;;;21.27;21.78
62942;BME280;49042;47.318;19.874;2023-02-13T09:45:04;102588.19;;;23.23;20.15
62942;BME280;49042;47.318;19.874;2023-02-13T09:48:13;102594.06;;;22.36;20.86
62942;BME280;49042;47.318;19.874;2023-02-13T09:51:17;102595.16;;;16.95;26.59
62942;BME280;49042;47.318;19.874;2023-02-13T09:54:19;102591.63;;;18.16;25.33
62942;BME280;49042;47.318;19.874;2023-02-13T09:57:33;102588.03;;;15.84;28.91
62942;BME280;49042;47.318;19.874;2023-02-13T10:00:42;102584.75;;;14.91;30.24
62942;BME280;49042;47.318;19.874;2023-02-13T10:07:16;102588.44;;;11.39;36.01
62942;BME280;49042;47.318;19.874;2023-02-13T10:17:10;102564.56;;;8.95;43.03
62942;BME280;49042;47.318;19.874;2023-02-13T10:20:32;102551.44;;;8.57;44.01
62942;BME280;49042;47.318;19.874;2023-02-13T10:23:40;102564.34;;;7.40;46.30
62942;BME280;49042;47.318;19.874;2023-02-13T10:26:45;102557.69;;;7.21;46.10
62942;BME280;49042;47.318;19.874;2023-02-13T10:33:17;102553.16;;;6.63;46.07
62942;BME280;49042;47.318;19.874;2023-02-13T10:36:30;102540.59;;;6.47;48.11
62942;BME280;49042;47.318;19.874;2023-02-13T10:39:34;102538.94;;;6.26;48.59
62942;BME280;49042;47.318;19.874;2023-02-13T10:42:41;102546.59;;;5.93;49.51
62942;BME280;49042;47.318;19.874;2023-02-13T11:05:22;102529.44;;;6.48;51.61
62942;BME280;49042;47.318;19.874;2023-02-13T11:08:38;102533.25;;;6.30;52.65
62942;BME280;49042;47.318;19.874;2023-02-13T11:11:41;102529.19;;;6.45;52.65
62942;BME280;49042;47.318;19.874;2023-02-13T11:15:05;102526.13;;;6.28;53.57
62942;BME280;49042;47.318;19.874;2023-02-13T11:18:21;102521.47;;;6.24;53.12
62942;BME280;49042;47.318;19.874;2023-02-13T11:21:33;102513.19;;;5.75;55.66
62942;BME280;49042;47.318;19.874;2023-02-13T11:24:36;102521.06;;;5.87;55.88
62942;BME280;49042;47.318;19.874;2023-02-13T11:27:40;102512.88;;;6.46;54.71
62942;BME280;49042;47.318;19.874;2023-02-13T11:30:42;102506.16;;;6.27;54.16
62942;BME280;49042;47.318;19.874;2023-02-13T11:33:44;102493.41;;;6.84;52.89
62942;BME280;49042;47.318;19.874;2023-02-13T11:36:50;102499.94;;;7.01;52.25
62942;BME280;49042;47.318;19.874;2023-02-13T11:39:57;102494.91;;;6.70;52.81
62942;BME280;49042;47.318;19.874;2023-02-13T11:42:59;102478.56;;;6.71;53.84
62942;BME280;49042;47.318;19.874;2023-02-13T11:46:02;102478.28;;;6.78;53.15
62942;BME280;49042;47.318;19.874;2023-02-13T11:49:05;102471.16;;;6.42;54.74
62942;BME280;49042;47.318;19.874;2023-02-13T11:52:26;102470.25;;;6.42;55.35
62942;BME280;49042;47.318;19.874;2023-02-13T11:55:39;102460.53;;;6.95;53.65
62942;BME280;49042;47.318;19.874;2023-02-13T11:58:43;102459.50;;;7.38;52.53
62942;BME280;49042;47.318;19.874;2023-02-13T12:01:44;102450.78;;;7.03;52.31
62942;BME280;49042;47.318;19.874;2023-02-13T12:04:51;102446.16;;;6.66;53.94
62942;BME280;49042;47.318;19.874;2023-02-13T12:07:59;102438.69;;;7.26;52.21
62942;BME280;49042;47.318;19.874;2023-02-13T12:11:20;102433.37;;;7.24;52.02
62942;BME280;49042;47.318;19.874;2023-02-13T12:14:30;102434.94;;;7.22;52.01
62942;BME280;49042;47.318;19.874;2023-02-13T12:17:34;102429.91;;;7.36;52.09
62942;BME280;49042;47.318;19.874;2023-02-13T12:41:17;102401.41;;;7.72;50.83
62942;BME280;49042;47.318;19.874;2023-02-13T12:44:45;102392.47;;;7.56;51.40
62942;BME280;49042;47.318;19.874;2023-02-13T12:48:07;102384.12;;;7.48;52.04
62942;BME280;49042;47.318;19.874;2023-02-13T13:14:10;102363.13;;;7.93;51.04
62942;BME280;49042;47.318;19.874;2023-02-13T13:20:51;102358.50;;;8.01;51.59
62942;BME280;49042;47.318;19.874;2023-02-13T13:27:17;102349.16;;;8.41;50.48
62942;BME280;49042;47.318;19.874;2023-02-13T13:30:25;102349.97;;;8.40;50.12
62942;BME280;49042;47.318;19.874;2023-02-13T13:33:29;102356.84;;;8.40;50.07
62942;BME280;49042;47.318;19.874;2023-02-13T13:43:46;102352.50;;;8.14;50.52
62942;BME280;49042;47.318;19.874;2023-02-13T13:50:02;102345.69;;;8.17;50.79
62942;BME280;49042;47.318;19.874;2023-02-13T13:53:13;102338.22;;;8.33;50.47
62942;BME280;49042;47.318;19.874;2023-02-13T13:56:16;102340.59;;;8.30;50.93
62942;BME280;49042;47.318;19.874;2023-02-13T14:06:00;102334.16;;;8.25;50.41
62942;BME280;49042;47.318;19.874;2023-02-13T14:09:04;102335.44;;;8.68;49.02
62942;BME280;49042;47.318;19.874;2023-02-13T14:18:45;102337.16;;;12.58;38.16
62942;BME280;49042;47.318;19.874;2023-02-13T14:21:47;102333.91;;;12.97;36.89
62942;BME280;49042;47.318;19.874;2023-02-13T14:24:49;102341.06;;;14.27;34.80
62942;BME280;49042;47.318;19.874;2023-02-13T14:27:58;102333.12;;;14.07;34.10
62942;BME280;49042;47.318;19.874;2023-02-13T14:34:27;102349.69;;;11.52;39.29
62942;BME280;49042;47.318;19.874;2023-02-13T14:37:34;102351.41;;;9.92;43.03
62942;BME280;49042;47.318;19.874;2023-02-13T14:40:46;102351.16;;;9.09;45.33
62942;BME280;49042;47.318;19.874;2023-02-13T14:43:52;102350.03;;;10.69;42.40
62942;BME280;49042;47.318;19.874;2023-02-13T14:46:55;102339.03;;;12.12;38.52
62942;BME280;49042;47.318;19.874;2023-02-13T14:50:00;102333.84;;;11.96;38.66
62942;BME280;49042;47.318;19.874;2023-02-13T14:53:09;102344.97;;;10.43;41.01
62942;BME280;49042;47.318;19.874;2023-02-13T14:56:18;102344.69;;;10.25;41.52
62942;BME280;49042;47.318;19.874;2023-02-13T14:59:25;102341.56;;;9.88;42.04
62942;BME280;49042;47.318;19.874;2023-02-13T15:02:33;102346.88;;;8.84;44.49
62942;BME280;49042;47.318;19.874;2023-02-13T15:05:37;102342.56;;;7.97;47.13
62942;BME280;49042;47.318;19.874;2023-02-13T15:08:47;102337.38;;;7.48;49.52
62942;BME280;49042;47.318;19.874;2023-02-13T15:11:49;102336.53;;;7.25;50.47
62942;BME280;49042;47.318;19.874;2023-02-13T15:14:52;102346.50;;;6.96;51.96
62942;BME280;49042;47.318;19.874;2023-02-13T15:17:58;102345.50;;;6.94;52.36
62942;BME280;49042;47.318;19.874;2023-02-13T15:21:01;102337.84;;;6.96;52.51
62942;BME280;49042;47.318;19.874;2023-02-13T15:24:03;102346.25;;;6.81;53.15
62942;BME280;49042;47.318;19.874;2023-02-13T15:27:06;102337.69;;;6.60;54.04
62942;BME280;49042;47.318;19.874;2023-02-13T15:30:23;102346.84;;;6.67;53.89
62942;BME280;49042;47.318;19.874;2023-02-13T15:33:43;102340.66;;;6.09;56.28
62942;BME280;49042;47.318;19.874;2023-02-13T15:36:45;102336.69;;;5.81;57.57
62942;BME280;49042;47.318;19.874;2023-02-13T15:39:48;102336.41;;;5.88;57.57
62942;BME280;49042;47.318;19.874;2023-02-13T15:42:51;102335.75;;;5.48;59.71
62942;BME280;49042;47.318;19.874;2023-02-13T15:45:55;102335.47;;;5.34;60.57
62942;BME280;49042;47.318;19.874;2023-02-13T15:49:04;102342.06;;;5.62;59.61
62942;BME280;49042;47.318;19.874;2023-02-13T15:52:32;102325.34;;;5.68;59.06
62942;BME280;49042;47.318;19.874;2023-02-13T15:55:35;102332.72;;;5.64;58.88
62942;BME280;49042;47.318;19.874;2023-02-13T15:58:39;102335.75;;;5.48;59.11
62942;BME280;49042;47.318;19.874;2023-02-13T16:01:42;102336.62;;;5.38;59.50
62942;BME280;49042;47.318;19.874;2023-02-13T16:04:50;102340.28;;;5.29;59.84
62942;BME280;49042;47.318;19.874;2023-02-13T16:07:57;102343.25;;;5.13;60.58
62942;BME280;49042;47.318;19.874;2023-02-13T16:14:23;102344.63;;;4.67;63.03
62942;BME280;49042;47.318;19.874;2023-02-13T16:17:34;102351.75;;;4.70;62.55
62942;BME280;49042;47.318;19.874;2023-02-13T16:20:37;102345.41;;;4.66;62.53
62942;BME280;49042;47.318;19.874;2023-02-13T16:23:43;102341.87;;;4.45;63.87
62942;BME280;49042;47.318;19.874;2023-02-13T16:26:47;102347.78;;;4.33;64.60
62942;BME280;49042;47.318;19.874;2023-02-13T16:29:58;102344.00;;;4.30;64.69
62942;BME280;49042;47.318;19.874;2023-02-13T16:33:11;102339.50;;;4.27;65.56
62942;BME280;49042;47.318;19.874;2023-02-13T16:39:27;102334.50;;;3.60;68.54
62942;BME280;49042;47.318;19.874;2023-02-13T16:42:31;102335.53;;;2.66;73.91
62942;BME280;49042;47.318;19.874;2023-02-13T16:45:33;102330.72;;;2.61;74.72
62942;BME280;49042;47.318;19.874;2023-02-13T16:48:35;102328.81;;;3.06;72.49
62942;BME280;49042;47.318;19.874;2023-02-13T16:54:55;102322.09;;;3.17;71.71
62942;BME280;49042;47.318;19.874;2023-02-13T16:58:04;102324.81;;;2.90;73.77
62942;BME280;49042;47.318;19.874;2023-02-13T17:01:06;102335.69;;;2.68;74.71
62942;BME280;49042;47.318;19.874;2023-02-13T17:04:21;102328.09;;;2.70;75.03
62942;BME280;49042;47.318;19.874;2023-02-13T17:07:29;102320.56;;;2.91;73.56
62942;BME280;49042;47.318;19.874;2023-02-13T17:10:34;102318.50;;;2.77;74.59
62942;BME280;49042;47.318;19.874;2023-02-13T17:13:36;102315.75;;;2.56;76.26
62942;BME280;49042;47.318;19.874;2023-02-13T17:16:39;102314.66;;;2.63;76.26
62942;BME280;49042;47.318;19.874;2023-02-13T17:19:42;102314.84;;;2.84;74.67
62942;BME280;49042;47.318;19.874;2023-02-13T17:22:47;102316.06;;;2.51;76.53
62942;BME280;49042;47.318;19.874;2023-02-13T17:25:51;102312.59;;;2.50;76.43
62942;BME280;49042;47.318;19.874;2023-02-13T17:28:57;102319.41;;;2.41;76.04
62942;BME280;49042;47.318;19.874;2023-02-13T17:32:00;102316.97;;;2.51;75.67
62942;BME280;49042;47.318;19.874;2023-02-13T17:35:03;102315.63;;;2.46;76.18
62942;BME280;49042;47.318;19.874;2023-02-13T17:38:05;102309.72;;;2.47;76.33
62942;BME280;49042;47.318;19.874;2023-02-13T17:41:20;102289.03;;;2.28;78.25
62942;BME280;49042;47.318;19.874;2023-02-13T17:44:24;102293.19;;;2.54;76.54
62942;BME280;49042;47.318;19.874;2023-02-13T17:47:27;102293.75;;;2.60;76.11
62942;BME280;49042;47.318;19.874;2023-02-13T17:50:32;102295.66;;;2.34;77.81
62942;BME280;49042;47.318;19.874;2023-02-13T17:53:34;102288.91;;;2.17;79.34
62942;BME280;49042;47.318;19.874;2023-02-13T17:56:37;102279.53;;;2.09;80.74
62942;BME280;49042;47.318;19.874;2023-02-13T17:59:41;102286.91;;;2.23;80.23
62942;BME280;49042;47.318;19.874;2023-02-13T18:02:44;102286.72;;;2.40;78.52
62942;BME280;49042;47.318;19.874;2023-02-13T18:05:48;102280.09;;;2.24;79.21
62942;BME280;49042;47.318;19.874;2023-02-13T18:08:50;102279.06;;;2.22;78.79
62942;BME280;49042;47.318;19.874;2023-02-13T18:11:54;102285.81;;;1.93;80.91
62942;BME280;49042;47.318;19.874;2023-02-13T18:15:06;102279.00;;;1.85;81.31
62942;BME280;49042;47.318;19.874;2023-02-13T18:18:12;102271.47;;;1.51;83.09
62942;BME280;49042;47.318;19.874;2023-02-13T18:21:21;102267.22;;;1.69;82.12
62942;BME280;49042;47.318;19.874;2023-02-13T18:24:29;102264.34;;;1.75;81.74
62942;BME280;49042;47.318;19.874;2023-02-13T18:27:32;102259.34;;;1.76;81.72
62942;BME280;49042;47.318;19.874;2023-02-13T18:30:35;102259.34;;;1.67;81.91
62942;BME280;49042;47.318;19.874;2023-02-13T18:33:37;102253.03;;;1.55;83.34
62942;BME280;49042;47.318;19.874;2023-02-13T18:36:39;102271.94;;;1.55;82.74
62942;BME280;49042;47.318;19.874;2023-02-13T18:39:43;102261.94;;;1.58;82.28
62942;BME280;49042;47.318;19.874;2023-02-13T18:42:46;102260.75;;;1.37;82.92